Islington, United Kingdom
Current Conditions -  °F | °C
As of 5:20 PM on Saturday 20 Dec 2014 (Local Time) from EGLC Reporting Station
Clear Clear  
Wind Chill: 42°   Ceiling: Unl
Heat Index: 48°   Visibility: 6mi
Dew Point: 37°   Wind: 15mph
Humidity: 66%   Direction: 260°W
Pressure: 30.36"   Gusts: NA
Location:  51.54°N, 0.1°W
Report Text: EGLC 201720Z AUTO 26013KT 9999 NCD 09/03 Q1028
Loading
Personal Weather Stations






























Interactive Weather Map New forecast layout! Learn more

10-Day Weather Forecast

Advertisements
Track Severe Weather on mobile